• Join FlightAware (Why Join?)
  • Login
  • US Flag 
04:03AM EDT


 

Airport Tracker/Info


-or-


 

Live Flight TrackerFlight Track Log ✈ SWA3764 ✈ 02-May-2013 ✈ KMDW - KBNA

Flight Track Log - Related Links

Times and Time Zones

All times are in EDT time to prevent confusion due to time zone crossing. See the SWA3764 flight status page for this flight to view local times or setup timezone preferences in your user account.

Time Position Orientation Groundspeed Altitude Reporting Facility
EDT Latitude Longitude Course Direction KTS MPH feet Rate Location/Type
07:17AM 41.8000 -87.7167 177° South 153 176 2,000  Level Chicago TRACON
07:18AM 41.7667 -87.6667 132° Southeast 208 239 3,900 780 Climbing Chicago TRACON
07:20AM 41.6644 -87.6447 171° South 261 300 4,300 1,260 Climbing Chicago Center
07:21AM 41.6056 -87.6989 215° Southwest 259 298 7,600 2,640 Climbing Chicago Center
07:22AM 41.5431 -87.7575 215° Southwest 272 313 9,700 1,620 Climbing Chicago Center
07:23AM 40.9169 -87.8692 177° South  Level FlightAware Approximate
07:23AM 41.4794 -87.8161 215° Southwest 276 318 11,000  Level Chicago Center
07:24AM 41.3908 -87.8792 208° Southwest 308 354 14,400 3,240 Climbing Chicago Center
07:26AM 41.2615 -87.8802 185° South  Level FlightAware Approximate
07:26AM 41.1953 -87.8922 185° South 358 412 21,100  Level Chicago Center
07:27AM 41.0858 -87.8883 178° South 386 444 23,900 2,640 Climbing Chicago Center
07:28AM 40.9722 -87.8839 178° South 406 467 26,600 2,700 Climbing Chicago Center
07:29AM 40.8542 -87.8803 179° South 421 484 29,500 2,820 Climbing Chicago Center
07:30AM 40.7408 -87.8764 179° South 413 475 32,500 1,680 Climbing Chicago Center
07:31AM 40.6275 -87.8728 179° South 408 470 33,000 240 Climbing Chicago Center
07:32AM 40.5117 -87.8683 178° South 416 479 33,000  Level Chicago Center
07:33AM 40.3742 -87.8647 179° South 413 475 33,000  Level Chicago Center
07:34AM 40.2742 -87.8628 179° South 416 479 33,000  Level Indianapolis Center
07:35AM 40.1606 -87.8569 178° South 414 476 33,000  Level Indianapolis Center
07:36AM 40.0456 -87.8322 171° South 417 480 33,000  Level Indianapolis Center
07:37AM 39.9300 -87.8061 170° South 422 486 33,000  Level Indianapolis Center
07:38AM 39.8161 -87.7806 170° South 420 483 33,000  Level Indianapolis Center
07:39AM 39.7019 -87.7556 170° South 418 481 33,000  Level Indianapolis Center
07:40AM 39.5853 -87.7300 170° South 425 489 33,000  Level Indianapolis Center
07:41AM 39.4475 -87.7000 170° South 422 486 33,000  Level Indianapolis Center
07:43AM 39.3444 -87.6756 170° South 424 488 33,000  Level Indianapolis Center
07:44AM 39.2256 -87.6517 171° South 429 494 33,000  Level Indianapolis Center
07:45AM 39.1092 -87.6253 170° South 425 489 33,000  Level Indianapolis Center
07:46AM 38.9689 -87.5944 170° South 426 490 33,000  Level Indianapolis Center
07:47AM 38.8503 -87.5703 171° South 429 494 33,000  Level Indianapolis Center
07:48AM 38.7331 -87.5458 171° South 428 493 33,000  Level Indianapolis Center
07:49AM 38.6158 -87.5197 170° South 427 491 33,000  Level Indianapolis Center
07:50AM 38.4986 -87.4953 171° South 427 491 33,000 -240 Level Indianapolis Center
07:51AM 38.3822 -87.4711 171° South 427 491 32,600 -660 Descending Indianapolis Center
07:52AM 38.2650 -87.4458 170° South 429 494 31,700 -960 Descending Indianapolis Center
07:53AM 38.1467 -87.4208 171° South 434 499 30,700 -840 Descending Indianapolis Center
07:54AM 38.0042 -87.3908 171° South 434 499 30,000 -360 Descending Indianapolis Center
07:55AM 37.8842 -87.3653 170° South 436 502 30,000  Level Indianapolis Center
07:56AM 37.7556 -87.3375 170° South 438 504 30,000 -540 Level Indianapolis Center
07:57AM 37.6347 -87.3122 171° South 435 501 28,900 -1,860 Descending Indianapolis Center
07:58AM 37.5181 -87.2889 171° South 423 487 26,300 -2,460 Descending Indianapolis Center
07:59AM 37.4042 -87.2683 172° South 411 473 23,900 -1,620 Descending Indianapolis Center
08:00AM 37.2925 -87.2394 168° South 407 468 23,000 -480 Descending Indianapolis Center
08:01AM 37.2003 -87.2058 164° South 414 476 23,000 -900 Level Memphis Center
08:02AM 37.0928 -87.1633 162° South 409 471 21,300 -7,020 Descending Memphis Center
08:03AM 36.9878 -87.1261 164° South 394 453 9,000 -2,820 Descending Memphis Center
08:03AM 36.9519 -87.1119 162° South 383 441 17,800 7,080 Climbing Memphis Center
08:04AM 36.8889 -87.0886 164° South 379 436 16,100 -2,520 Descending Memphis Center
08:05AM 36.7836 -87.0489 163° South 368 423 13,400 -2,700 Descending Memphis Center
08:06AM 36.6908 -87.0164 164° South 360 414 10,800 -1,680 Descending Memphis Center
08:07AM 36.6128 -86.9731 156° South 331 381 10,100 -1,080 Descending Memphis Center
08:08AM 36.5486 -86.9217 147° Southeast 295 339 8,700 -1,560 Descending Memphis Center
08:09AM 36.4847 -86.8700 147° Southeast 275 316 7,000 -1,740 Descending Memphis Center
08:10AM 36.4208 -86.8186 147° Southeast 275 316 5,300 -1,500 Descending Memphis Center
08:11AM 36.3611 -86.7750 150° Southeast 275 316 4,100 -660 Descending Memphis Center
08:12AM 36.3036 -86.7286 147° Southeast 266 306 4,000 -480 Descending Memphis Center
08:13AM 36.2544 -86.6894 147° Southeast 231 266 3,200 -1,080 Descending Memphis Center
08:14AM 36.2033 -86.6558 152° Southeast 208 239 1,900 -1,020 Descending Memphis Center
08:15AM 36.1642 -86.6653 191° South 161 185 1,200 -600 Descending Memphis Center
08:16AM 36.1331 -86.6719 190° South 141 162 700 3,900 Descending Memphis Center
08:17AM 36.0958 -86.6811 191° South 141 162 9,000 8,280 Climbing Memphis Center
08:19AM 36.1167 -86.6667 90° East  Level FlightAware Approximate
08:26AM 36.1245 -86.6782 90° East  Level Estimated
08:27AM 36.1245 -86.6782 90° East  Level Estimated
08:28AM 36.1245 -86.6782 90° East  Level Estimated
08:29AM 36.1245 -86.6782 90° East  Level Estimated
08:30AM 36.1245 -86.6782 90° East  Level Estimated
08:31AM 36.1245 -86.6782 90° East  Level Estimated